createdAt,value
2023-01-13T00:01:10.754Z,16.47
2023-01-13T00:03:37.969Z,16.17
2023-01-13T00:06:06.132Z,17.20
2023-01-13T00:08:33.673Z,16.05
2023-01-13T00:11:00.675Z,17.35
2023-01-13T00:13:27.782Z,16.50
2023-01-13T00:15:59.900Z,16.25
2023-01-13T00:18:28.090Z,16.67
2023-01-13T00:21:23.421Z,15.95
2023-01-13T00:23:52.971Z,15.73
2023-01-13T00:26:23.028Z,15.30
2023-01-13T00:28:51.103Z,15.13
2023-01-13T00:31:20.988Z,15.77
2023-01-13T00:33:51.728Z,14.13
2023-01-13T00:36:21.071Z,14.98
2023-01-13T00:38:48.596Z,14.30
2023-01-13T00:41:22.173Z,14.75
2023-01-13T00:43:50.093Z,17.75
2023-01-13T00:46:20.522Z,16.45
2023-01-13T00:48:48.807Z,16.87
2023-01-13T00:51:18.522Z,15.30
2023-01-13T00:53:48.402Z,15.85
2023-01-13T00:56:34.061Z,15.30
2023-01-13T00:59:06.051Z,14.27
2023-01-13T01:01:33.263Z,15.05
2023-01-13T01:04:00.536Z,15.90
2023-01-13T01:06:28.329Z,14.68
2023-01-13T01:08:56.581Z,16.67
2023-01-13T01:11:26.621Z,15.20
2023-01-13T01:13:56.306Z,15.65
2023-01-13T01:16:24.713Z,14.97
2023-01-13T01:18:53.663Z,14.02
2023-01-13T01:21:22.547Z,14.48
2023-01-13T01:23:49.814Z,14.95
2023-01-13T01:26:19.867Z,15.35
2023-01-13T01:28:47.628Z,15.50
2023-01-13T01:31:16.253Z,16.02
2023-01-13T01:33:43.407Z,16.27
2023-01-13T01:36:12.375Z,15.40
2023-01-13T01:38:40.100Z,16.05
2023-01-13T01:41:07.484Z,17.97
2023-01-13T01:44:00.499Z,18.00
2023-01-13T01:46:28.363Z,15.63
2023-01-13T01:49:04.132Z,17.50
2023-01-13T01:51:37.185Z,16.62
2023-01-13T01:54:08.769Z,23.30
2023-01-13T01:56:37.368Z,33.20
2023-01-13T01:59:04.572Z,24.63
2023-01-13T02:01:34.249Z,16.95
2023-01-13T02:04:15.586Z,15.85
2023-01-13T02:06:44.552Z,18.47
2023-01-13T02:09:12.844Z,16.52
2023-01-13T02:11:59.010Z,16.67
2023-01-13T02:14:29.312Z,16.95
2023-01-13T02:17:07.980Z,15.70
2023-01-13T02:19:53.517Z,15.83
2023-01-13T02:22:31.548Z,15.52
2023-01-13T02:25:30.798Z,16.85
2023-01-13T02:27:57.782Z,14.73
2023-01-13T02:30:53.731Z,14.82
2023-01-13T02:33:44.500Z,14.53
2023-01-13T02:36:19.987Z,14.27
2023-01-13T02:39:22.659Z,13.38
2023-01-13T02:42:45.235Z,13.52
2023-01-13T02:45:19.287Z,14.40
2023-01-13T02:47:50.352Z,14.30
2023-01-13T02:50:25.225Z,13.05
2023-01-13T02:53:00.709Z,13.35
2023-01-13T02:55:39.080Z,13.38
2023-01-13T02:58:09.666Z,13.93
2023-01-13T03:00:37.866Z,12.57
2023-01-13T03:03:04.835Z,12.05
2023-01-13T03:05:33.270Z,11.93
2023-01-13T03:08:43.115Z,12.43
2023-01-13T03:11:13.232Z,11.50
2023-01-13T03:13:49.089Z,11.47
2023-01-13T03:16:24.232Z,11.85
2023-01-13T03:19:07.196Z,11.63
2023-01-13T03:21:52.872Z,12.05
2023-01-13T03:24:36.745Z,12.13
2023-01-13T03:27:52.384Z,11.97
2023-01-13T03:30:26.874Z,12.50
2023-01-13T03:32:59.807Z,12.07
2023-01-13T03:35:44.317Z,12.20
2023-01-13T03:38:17.591Z,10.80
2023-01-13T03:41:08.669Z,11.70
2023-01-13T03:44:00.860Z,11.02
2023-01-13T03:46:39.021Z,10.23
2023-01-13T03:49:07.879Z,10.35
2023-01-13T03:51:39.192Z,10.40
2023-01-13T03:54:12.041Z,10.37
2023-01-13T03:56:47.537Z,10.93
2023-01-13T03:59:19.863Z,10.50
2023-01-13T04:02:09.243Z,10.38
2023-01-13T04:04:52.402Z,10.52
2023-01-13T04:07:37.277Z,11.67
2023-01-13T04:10:08.280Z,10.18
2023-01-13T04:13:05.213Z,11.00
2023-01-13T04:15:44.225Z,11.55
2023-01-13T04:18:18.723Z,10.43
2023-01-13T04:20:48.016Z,10.47
2023-01-13T04:23:16.223Z,9.57
2023-01-13T04:25:44.130Z,9.30
2023-01-13T04:28:11.668Z,9.30
2023-01-13T04:30:40.490Z,9.20
2023-01-13T04:33:07.814Z,9.13
2023-01-13T04:35:35.875Z,9.45
2023-01-13T04:38:09.480Z,9.40
2023-01-13T04:40:36.679Z,9.07
2023-01-13T04:43:03.849Z,8.70
2023-01-13T04:45:31.100Z,9.47
2023-01-13T04:47:58.137Z,9.63
2023-01-13T04:50:25.313Z,9.25
2023-01-13T04:52:53.509Z,9.02
2023-01-13T04:55:22.759Z,9.48
2023-01-13T04:57:50.027Z,9.47
2023-01-13T05:00:20.115Z,8.57
2023-01-13T05:02:49.051Z,8.30
2023-01-13T05:05:15.922Z,8.65
2023-01-13T05:07:42.801Z,8.77
2023-01-13T05:10:10.560Z,8.93
2023-01-13T05:12:56.879Z,9.35
2023-01-13T05:15:42.611Z,8.68
2023-01-13T05:18:09.684Z,8.20
2023-01-13T05:20:36.786Z,7.90
2023-01-13T05:23:22.342Z,8.50
2023-01-13T05:25:49.731Z,8.23
2023-01-13T05:28:17.036Z,8.57
2023-01-13T05:30:46.373Z,8.15
2023-01-13T05:33:16.231Z,8.25
2023-01-13T05:35:45.135Z,8.43
2023-01-13T05:38:13.267Z,8.20
2023-01-13T05:40:59.930Z,10.30
2023-01-13T05:43:28.179Z,14.48
2023-01-13T05:46:01.160Z,12.30
2023-01-13T05:48:34.542Z,12.27
2023-01-13T05:51:03.687Z,11.15
2023-01-13T05:53:31.651Z,9.55
2023-01-13T05:55:58.860Z,8.55
2023-01-13T05:58:27.966Z,9.35
2023-01-13T06:01:00.921Z,9.30
2023-01-13T06:03:27.916Z,8.80
2023-01-13T06:06:01.614Z,8.80
2023-01-13T06:08:29.662Z,9.45
2023-01-13T06:10:56.847Z,8.88
2023-01-13T06:13:25.325Z,8.60
2023-01-13T06:15:56.488Z,9.38
2023-01-13T06:18:23.728Z,10.43
2023-01-13T06:20:50.635Z,8.57
2023-01-13T06:23:17.856Z,9.30
2023-01-13T06:25:47.658Z,8.60
2023-01-13T06:28:14.675Z,9.45
2023-01-13T06:30:49.537Z,9.50
2023-01-13T06:33:25.461Z,8.75
2023-01-13T06:35:57.055Z,9.38
2023-01-13T06:38:28.231Z,9.30
2023-01-13T06:40:55.348Z,10.90
2023-01-13T06:43:22.435Z,10.80
2023-01-13T06:45:50.577Z,13.10
2023-01-13T06:48:19.048Z,11.25
2023-01-13T06:50:46.059Z,10.47
2023-01-13T06:53:12.994Z,9.27
2023-01-13T06:55:40.204Z,9.55
2023-01-13T06:58:07.641Z,9.73
2023-01-13T07:00:37.547Z,9.95
2023-01-13T07:03:11.807Z,9.63
2023-01-13T07:05:39.845Z,9.75
2023-01-13T07:08:07.308Z,10.25
2023-01-13T07:10:35.566Z,9.90
2023-01-13T07:13:22.810Z,9.85
2023-01-13T07:16:01.399Z,10.03
2023-01-13T07:18:31.774Z,10.27
2023-01-13T07:21:01.623Z,9.50
2023-01-13T07:23:31.323Z,10.32
2023-01-13T07:25:59.808Z,10.35
2023-01-13T07:28:29.231Z,12.17
2023-01-13T07:30:56.787Z,12.80
2023-01-13T07:33:24.310Z,11.00
2023-01-13T07:35:59.286Z,11.35
2023-01-13T07:38:27.003Z,9.70
2023-01-13T07:40:54.447Z,9.80
2023-01-13T07:43:34.268Z,10.73
2023-01-13T07:46:04.780Z,10.20
2023-01-13T07:48:33.991Z,10.85
2023-01-13T07:51:06.335Z,9.90
2023-01-13T07:53:33.860Z,9.67
2023-01-13T07:56:01.481Z,11.05
2023-01-13T07:58:29.285Z,10.55
2023-01-13T08:00:56.787Z,9.95
2023-01-13T08:03:24.248Z,11.05
2023-01-13T08:05:52.999Z,10.97
2023-01-13T08:08:19.934Z,10.27
2023-01-13T08:10:46.877Z,10.02
2023-01-13T08:13:22.120Z,9.25
2023-01-13T08:15:51.158Z,9.43
2023-01-13T08:18:22.281Z,9.10
2023-01-13T08:20:52.435Z,9.55
2023-01-13T08:23:20.805Z,9.30
2023-01-13T08:25:48.437Z,10.07
2023-01-13T08:28:16.462Z,10.43
2023-01-13T08:30:43.820Z,9.93
2023-01-13T08:33:12.583Z,10.02
2023-01-13T08:35:41.186Z,9.75
2023-01-13T08:38:09.548Z,9.57
2023-01-13T08:40:36.755Z,9.10
2023-01-13T08:43:03.928Z,9.93
2023-01-13T08:45:31.178Z,10.65
2023-01-13T08:47:59.257Z,10.43
2023-01-13T08:50:26.568Z,9.70
2023-01-13T08:52:53.748Z,10.65
2023-01-13T08:55:21.027Z,11.03
2023-01-13T08:57:48.151Z,10.55
2023-01-13T09:00:17.282Z,9.45
2023-01-13T09:02:44.749Z,10.75
2023-01-13T09:05:11.757Z,9.52
2023-01-13T09:07:39.314Z,9.30
2023-01-13T09:10:07.770Z,8.73
2023-01-13T09:12:53.488Z,8.60
2023-01-13T09:15:21.687Z,9.20
2023-01-13T09:17:48.682Z,9.25
2023-01-13T09:20:15.904Z,9.00
2023-01-13T09:22:42.856Z,9.90
2023-01-13T09:25:10.437Z,9.35
2023-01-13T09:27:37.344Z,9.88
2023-01-13T09:30:05.420Z,9.73
2023-01-13T09:32:32.903Z,8.87
2023-01-13T09:35:02.962Z,10.32
2023-01-13T09:37:36.694Z,9.75
2023-01-13T09:40:17.809Z,9.48
2023-01-13T09:43:35.282Z,8.68
2023-01-13T09:46:36.054Z,8.77
2023-01-13T09:49:04.378Z,9.60
2023-01-13T09:51:39.268Z,10.35
2023-01-13T09:54:17.372Z,13.02
2023-01-13T09:56:44.450Z,11.57
2023-01-13T09:59:12.729Z,8.93
2023-01-13T10:01:51.805Z,9.23
2023-01-13T10:04:18.983Z,10.30
2023-01-13T10:06:59.542Z,8.32
2023-01-13T10:09:51.378Z,8.45
2023-01-13T10:12:42.919Z,8.03
2023-01-13T10:15:20.561Z,7.97
2023-01-13T10:18:14.521Z,6.07
2023-01-13T10:20:56.307Z,9.18
2023-01-13T10:23:41.152Z,10.25
2023-01-13T10:26:24.102Z,8.60
2023-01-13T10:28:53.519Z,8.88
2023-01-13T10:31:22.391Z,10.43
2023-01-13T10:33:57.657Z,10.45
2023-01-13T10:36:24.871Z,10.93
2023-01-13T10:38:52.601Z,10.13
2023-01-13T10:41:25.289Z,9.73
2023-01-13T10:43:52.088Z,8.15
2023-01-13T10:46:20.705Z,8.68
2023-01-13T10:48:59.529Z,6.72
2023-01-13T10:51:30.714Z,6.67
2023-01-13T10:54:01.884Z,7.05
2023-01-13T10:56:32.432Z,8.18
2023-01-13T10:59:14.724Z,5.97
2023-01-13T11:01:54.802Z,6.70
2023-01-13T11:04:39.501Z,8.33
2023-01-13T11:07:21.276Z,8.07
2023-01-13T11:09:48.661Z,8.05
2023-01-13T11:12:32.228Z,8.48
2023-01-13T11:15:03.040Z,8.25
2023-01-13T11:17:40.643Z,8.93
2023-01-13T11:20:31.124Z,7.93
2023-01-13T11:23:01.509Z,5.60
2023-01-13T11:25:45.184Z,8.88
2023-01-13T11:28:35.309Z,9.48
2023-01-13T11:31:08.762Z,8.23
2023-01-13T11:33:41.801Z,9.27
2023-01-13T11:36:21.092Z,13.98
2023-01-13T11:38:54.539Z,11.85
2023-01-13T11:41:40.016Z,8.30
2023-01-13T11:44:20.941Z,8.60
2023-01-13T11:46:53.727Z,8.02
2023-01-13T11:49:28.475Z,9.38
2023-01-13T11:52:16.268Z,10.63
2023-01-13T11:55:08.368Z,6.62
2023-01-13T11:58:11.584Z,9.90
2023-01-13T12:00:38.502Z,9.73
2023-01-13T12:03:24.749Z,8.73
2023-01-13T12:05:59.824Z,9.20
2023-01-13T12:09:04.989Z,5.72
2023-01-13T12:12:13.261Z,8.37
2023-01-13T12:14:52.051Z,10.02
2023-01-13T12:17:39.173Z,9.25
2023-01-13T12:20:34.636Z,9.07
2023-01-13T12:23:07.380Z,7.72
2023-01-13T12:25:45.645Z,8.47
2023-01-13T12:28:38.326Z,9.05
2023-01-13T12:31:07.431Z,9.48
2023-01-13T12:33:49.498Z,7.95
2023-01-13T12:36:25.305Z,8.95
2023-01-13T12:38:58.895Z,9.13
2023-01-13T12:42:11.608Z,9.23
2023-01-13T12:45:19.684Z,9.35
2023-01-13T12:47:46.808Z,10.18
2023-01-13T12:50:22.895Z,7.93
2023-01-13T12:52:51.584Z,12.07
2023-01-13T12:55:24.099Z,10.88
2023-01-13T12:58:18.071Z,10.77
2023-01-13T13:00:45.690Z,10.15
2023-01-13T13:03:12.653Z,11.18
2023-01-13T13:06:00.965Z,13.77
2023-01-13T13:08:49.635Z,11.38
2023-01-13T13:11:40.684Z,8.27
2023-01-13T13:14:13.033Z,11.23
2023-01-13T13:16:49.505Z,11.02
2023-01-13T13:19:22.347Z,11.50
2023-01-13T13:22:07.587Z,11.50
2023-01-13T13:24:34.483Z,9.70
2023-01-13T13:27:40.952Z,9.90
2023-01-13T13:30:28.924Z,5.78
2023-01-13T13:33:14.208Z,11.00
2023-01-13T13:36:06.097Z,6.65
2023-01-13T13:39:29.668Z,6.75
2023-01-13T13:42:30.374Z,9.93
2023-01-13T13:45:17.327Z,11.48
2023-01-13T13:47:44.365Z,10.93
2023-01-13T13:50:16.717Z,12.37
2023-01-13T13:52:51.822Z,11.02
2023-01-13T13:55:20.807Z,10.82
2023-01-13T13:57:53.184Z,13.13
2023-01-13T14:00:26.251Z,12.03
2023-01-13T14:02:57.146Z,12.27
2023-01-13T14:05:29.961Z,12.18
2023-01-13T14:08:14.361Z,18.30
2023-01-13T14:10:43.395Z,11.45
2023-01-13T14:13:23.739Z,11.93
2023-01-13T14:15:57.953Z,12.88
2023-01-13T14:18:26.725Z,12.45
2023-01-13T14:21:27.333Z,11.35
2023-01-13T14:24:00.404Z,9.10
2023-01-13T14:26:32.152Z,14.80
2023-01-13T14:29:01.605Z,12.43
2023-01-13T14:31:29.633Z,13.07
2023-01-13T14:34:03.112Z,12.98
2023-01-13T14:36:51.312Z,12.00
2023-01-13T14:39:18.281Z,11.47
2023-01-13T14:41:48.263Z,11.32
2023-01-13T14:44:32.293Z,11.93
2023-01-13T14:47:03.114Z,11.05
2023-01-13T14:49:37.072Z,11.43
2023-01-13T14:52:20.286Z,9.97
2023-01-13T14:54:50.394Z,13.07
2023-01-13T14:57:32.101Z,12.43
2023-01-13T15:00:14.529Z,12.45
2023-01-13T15:02:49.616Z,12.25
2023-01-13T15:05:19.337Z,12.43
2023-01-13T15:07:54.483Z,11.50
2023-01-13T15:10:25.269Z,12.02
2023-01-13T15:12:54.873Z,11.38
2023-01-13T15:15:24.838Z,8.95
2023-01-13T15:17:52.517Z,11.30
2023-01-13T15:20:23.289Z,11.20
2023-01-13T15:22:51.634Z,12.02
2023-01-13T15:25:20.176Z,11.93
2023-01-13T15:27:51.049Z,10.57
2023-01-13T15:30:22.371Z,11.30
2023-01-13T15:32:51.566Z,11.07
2023-01-13T15:35:28.885Z,11.45
2023-01-13T15:37:57.201Z,10.98
2023-01-13T15:40:31.033Z,10.68
2023-01-13T15:43:19.450Z,9.80
2023-01-13T15:46:14.272Z,9.35
2023-01-13T15:48:41.487Z,7.05
2023-01-13T15:51:11.876Z,9.18
2023-01-13T15:53:42.423Z,8.10
2023-01-13T15:56:20.036Z,11.13
2023-01-13T15:58:50.032Z,10.77
2023-01-13T16:01:17.090Z,11.02
2023-01-13T16:03:46.364Z,12.40
2023-01-13T16:06:20.379Z,14.18
2023-01-13T16:08:50.366Z,12.07
2023-01-13T16:11:20.392Z,12.27
2023-01-13T16:13:47.223Z,13.52
2023-01-13T16:16:22.092Z,12.65
2023-01-13T16:18:50.494Z,12.00
2023-01-13T16:21:20.485Z,11.57
2023-01-13T16:23:52.551Z,12.15
2023-01-13T16:26:32.772Z,13.57
2023-01-13T16:28:59.701Z,14.05
2023-01-13T16:31:32.343Z,7.50
2023-01-13T16:34:02.560Z,11.77
2023-01-13T16:36:34.467Z,12.35
2023-01-13T16:39:02.127Z,13.23
2023-01-13T16:41:31.128Z,13.50
2023-01-13T16:43:59.253Z,13.07
2023-01-13T16:46:33.720Z,11.47
2023-01-13T16:49:04.439Z,11.80
2023-01-13T16:51:33.278Z,12.82
2023-01-13T16:54:00.173Z,12.45
2023-01-13T16:56:29.844Z,19.45
2023-01-13T16:59:08.691Z,13.27
2023-01-13T17:01:38.726Z,16.30
2023-01-13T17:04:06.408Z,17.00
2023-01-13T17:06:41.295Z,21.55
2023-01-13T17:09:16.094Z,19.62
2023-01-13T17:11:43.290Z,13.20
2023-01-13T17:14:18.240Z,14.50
2023-01-13T17:16:46.188Z,12.05
2023-01-13T17:19:13.696Z,17.92
2023-01-13T17:21:40.939Z,18.02
2023-01-13T17:24:09.697Z,15.27
2023-01-13T17:26:42.182Z,12.48
2023-01-13T17:29:12.808Z,11.50
2023-01-13T17:31:48.151Z,9.10
2023-01-13T17:34:15.667Z,12.20
2023-01-13T17:36:45.700Z,18.53
2023-01-13T17:39:21.604Z,15.88
2023-01-13T17:41:49.724Z,14.57
2023-01-13T17:44:18.550Z,14.98
2023-01-13T17:46:46.041Z,14.43
2023-01-13T17:49:15.112Z,15.30
2023-01-13T17:51:42.688Z,16.45
2023-01-13T17:54:12.911Z,16.10
2023-01-13T17:56:41.250Z,14.48
2023-01-13T17:59:10.567Z,12.80
2023-01-13T18:01:38.053Z,12.23
2023-01-13T18:04:06.986Z,12.70
2023-01-13T18:06:35.025Z,13.27
2023-01-13T18:09:02.611Z,11.82
2023-01-13T18:11:29.855Z,12.45
2023-01-13T18:13:57.579Z,10.30
2023-01-13T18:16:30.381Z,10.80
2023-01-13T18:19:18.580Z,11.30
2023-01-13T18:22:06.543Z,11.02
2023-01-13T18:24:52.775Z,11.32
2023-01-13T18:27:34.765Z,10.80
2023-01-13T18:30:06.778Z,12.95
2023-01-13T18:32:35.195Z,11.77
2023-01-13T18:35:06.700Z,12.45
2023-01-13T18:37:39.997Z,13.62
2023-01-13T18:40:11.121Z,13.93
2023-01-13T18:42:55.131Z,12.23
2023-01-13T18:45:32.455Z,11.45
2023-01-13T18:48:02.869Z,11.35
2023-01-13T18:50:31.902Z,10.63
2023-01-13T18:53:03.055Z,10.97
2023-01-13T18:55:30.763Z,10.73
2023-01-13T18:57:58.994Z,11.48
2023-01-13T19:00:28.770Z,11.27
2023-01-13T19:05:36.227Z,11.00
2023-01-13T19:08:04.758Z,12.23
2023-01-13T19:10:32.719Z,12.15
2023-01-13T19:13:01.576Z,11.60
2023-01-13T19:15:29.078Z,13.25
2023-01-13T19:17:56.269Z,12.47
2023-01-13T19:20:24.778Z,14.02
2023-01-13T19:22:54.462Z,14.55
2023-01-13T19:25:21.920Z,13.65
2023-01-13T19:27:49.488Z,13.40
2023-01-13T19:30:18.170Z,14.33
2023-01-13T19:32:45.530Z,14.02
2023-01-13T19:35:13.299Z,13.98
2023-01-13T19:37:40.950Z,14.57
2023-01-13T19:40:10.837Z,14.82
2023-01-13T19:42:56.919Z,15.70
2023-01-13T19:45:27.350Z,15.15
2023-01-13T19:48:00.474Z,16.05
2023-01-13T19:50:27.951Z,16.42
2023-01-13T19:52:57.578Z,18.67
2023-01-13T19:55:25.289Z,16.90
2023-01-13T19:57:53.446Z,18.52
2023-01-13T20:00:22.899Z,20.25
2023-01-13T20:02:53.412Z,16.62
2023-01-13T20:05:25.230Z,17.98
2023-01-13T20:07:55.196Z,15.63
2023-01-13T20:10:24.716Z,15.55
2023-01-13T20:12:52.580Z,15.93
2023-01-13T20:15:21.931Z,16.83
2023-01-13T20:17:49.967Z,16.37
2023-01-13T20:20:18.780Z,15.87
2023-01-13T20:22:49.284Z,16.02
2023-01-13T20:25:17.963Z,15.40
2023-01-13T20:27:47.764Z,18.17
2023-01-13T20:30:16.048Z,19.27
2023-01-13T20:32:46.227Z,19.43
2023-01-13T20:35:13.909Z,15.77
2023-01-13T20:37:43.790Z,15.52
2023-01-13T20:40:15.279Z,15.18
2023-01-13T20:42:45.546Z,15.10
2023-01-13T20:45:18.005Z,14.33
2023-01-13T20:47:46.848Z,14.40
2023-01-13T20:50:15.884Z,14.95
2023-01-13T20:52:44.537Z,16.05
2023-01-13T20:55:12.455Z,17.17
2023-01-13T20:57:41.585Z,17.00
2023-01-13T21:00:11.170Z,16.27
2023-01-13T21:02:40.207Z,16.87
2023-01-13T21:05:09.081Z,15.82
2023-01-13T21:07:36.882Z,16.85
2023-01-13T21:10:06.689Z,17.27
2023-01-13T21:12:52.596Z,16.70
2023-01-13T21:15:22.131Z,17.27
2023-01-13T21:18:10.771Z,16.80
2023-01-13T21:20:38.839Z,19.12
2023-01-13T21:23:06.302Z,18.17
2023-01-13T21:25:35.401Z,17.37
2023-01-13T21:28:06.640Z,17.87
2023-01-13T21:30:35.000Z,15.63
2023-01-13T21:33:03.957Z,17.25
2023-01-13T21:35:31.059Z,15.70
2023-01-13T21:37:58.182Z,15.32
2023-01-13T21:40:25.139Z,15.75
2023-01-13T21:43:10.460Z,14.18
2023-01-13T21:45:57.756Z,14.02
2023-01-13T21:48:24.787Z,15.23
2023-01-13T21:50:51.785Z,14.63
2023-01-13T21:53:18.768Z,15.23
2023-01-13T21:55:51.379Z,14.15
2023-01-13T21:58:18.299Z,15.63
2023-01-13T22:00:45.940Z,15.23
2023-01-13T22:03:14.681Z,16.33
2023-01-13T22:05:42.135Z,16.05
2023-01-13T22:08:12.569Z,16.87
2023-01-13T22:10:57.288Z,16.08
2023-01-13T22:13:43.492Z,15.80
2023-01-13T22:16:10.788Z,16.95
2023-01-13T22:18:37.978Z,17.67
2023-01-13T22:21:05.208Z,17.15
2023-01-13T22:23:32.288Z,17.73
2023-01-13T22:26:06.483Z,15.93
2023-01-13T22:28:46.652Z,16.55
2023-01-13T22:31:19.019Z,17.17
2023-01-13T22:33:47.191Z,16.98
2023-01-13T22:36:15.229Z,15.98
2023-01-13T22:38:42.116Z,16.70
2023-01-13T22:41:09.674Z,18.60
2023-01-13T22:43:38.123Z,17.55
2023-01-13T22:46:11.081Z,17.90
2023-01-13T22:48:39.389Z,23.50
2023-01-13T22:51:06.378Z,19.90
2023-01-13T22:53:33.665Z,19.05
2023-01-13T22:56:01.128Z,19.87
2023-01-13T22:58:28.195Z,20.15
2023-01-13T23:00:56.066Z,15.40
2023-01-13T23:03:23.826Z,17.00
2023-01-13T23:05:55.848Z,16.80
2023-01-13T23:08:22.778Z,15.77
2023-01-13T23:10:50.287Z,16.62
2023-01-13T23:13:17.157Z,17.40
2023-01-13T23:15:44.255Z,16.43
2023-01-13T23:18:11.159Z,17.77
2023-01-13T23:20:38.148Z,19.15
2023-01-13T23:23:05.309Z,17.42
2023-01-13T23:25:32.348Z,16.92
2023-01-13T23:27:59.187Z,16.40
2023-01-13T23:30:26.162Z,16.35
2023-01-13T23:32:53.477Z,16.08
2023-01-13T23:35:20.399Z,15.88
2023-01-13T23:37:47.236Z,16.35
2023-01-13T23:40:14.845Z,16.33
2023-01-13T23:42:41.988Z,15.20
2023-01-13T23:45:09.793Z,15.07
2023-01-13T23:47:37.258Z,15.13
2023-01-13T23:50:05.036Z,16.35
2023-01-13T23:52:32.406Z,15.30
2023-01-13T23:54:59.406Z,15.70
2023-01-13T23:57:28.994Z,15.43
